Time;durP1;ratioP1;P1;durP2;ratioP2;P2;SDS_P1;SDS_P2;PMS_P1;PMS_P2;Temp;Humidity;BMP_temperature;BMP_pressure;BME280_temperature;BME280_humidity;BME280_pressure;Samples;Min_cycle;Max_cycle;Signal;HPM_P1;HPM_P2
2021/08/14 00:00:05;;;;;;;;;19.33;18.00;;;;;;;;6490765;31;8987;-64
2021/08/14 00:06:07;;;;;;;;;19.33;18.33;;;;;;;;6491907;31;8977;-64
2021/08/14 00:12:11;;;;;;;;;22.33;21.67;;;;;;;;6489255;39;9632;-63
2021/08/14 00:18:13;;;;;;;;;18.67;15.67;;;;;;;;6489330;46;9082;-64
2021/08/14 00:24:15;;;;;;;;;21.33;19.67;;;;;;;;6490086;39;8967;-63
2021/08/14 00:30:17;;;;;;;;;23.00;20.67;;;;;;;;6411214;36;5001400;-63
2021/08/14 00:36:20;;;;;;;;;22.67;20.00;;;;;;;;6490450;39;8972;-63
2021/08/14 00:42:22;;;;;;;;;21.00;18.00;;;;;;;;6489808;46;9037;-63
2021/08/14 00:48:25;;;;;;;;;20.67;18.67;;;;;;;;6489636;39;8948;-63
2021/08/14 00:54:29;;;;;;;;;17.67;16.67;;;;;;;;6489890;31;8991;-64
2021/08/14 01:00:31;;;;;;;;;18.00;18.00;;;;;;;;6488678;31;9029;-65
2021/08/14 01:06:33;;;;;;;;;13.67;12.33;;;;;;;;6489763;46;8991;-63
2021/08/14 01:12:36;;;;;;;;;16.00;16.00;;;;;;;;6489276;46;9043;-64
2021/08/14 01:18:45;;;;;;;;;17.67;17.67;;;;;;;;6489006;39;8975;-63
2021/08/14 01:24:50;;;;;;;;;19.33;16.67;;;;;;;;6489431;39;9596;-64
2021/08/14 01:30:52;;;;;;;;;13.67;13.67;;;;;;;;6490485;39;9583;-63
2021/08/14 01:36:54;;;;;;;;;17.33;17.00;;;;;;;;6488682;31;9667;-64
2021/08/14 01:42:56;;;;;;;;;16.67;16.67;;;;;;;;6489752;39;9034;-62
2021/08/14 01:48:59;;;;;;;;;21.33;17.00;;;;;;;;6489533;39;8964;-64
2021/08/14 01:55:02;;;;;;;;;15.33;15.33;;;;;;;;6489602;39;8975;-63
2021/08/14 02:01:04;;;;;;;;;19.67;17.67;;;;;;;;6489718;31;9036;-63
2021/08/14 02:07:07;;;;;;;;;20.33;17.67;;;;;;;;6489648;39;9711;-64
2021/08/14 02:13:10;;;;;;;;;16.33;16.33;;;;;;;;6488467;46;9084;-64
2021/08/14 02:19:12;;;;;;;;;21.33;19.33;;;;;;;;6488896;39;8983;-64
2021/08/14 02:25:14;;;;;;;;;22.67;18.33;;;;;;;;6489541;39;9619;-63
2021/08/14 02:31:16;;;;;;;;;20.00;19.00;;;;;;;;6489294;31;9001;-64
2021/08/14 02:37:19;;;;;;;;;21.33;20.67;;;;;;;;6488753;47;9168;-64
2021/08/14 02:43:21;;;;;;;;;21.67;19.33;;;;;;;;6488573;47;9011;-64
2021/08/14 02:49:23;;;;;;;;;21.00;20.67;;;;;;;;6488888;39;8960;-65
2021/08/14 02:55:25;;;;;;;;;15.33;12.67;;;;;;;;6487962;39;9094;-62
2021/08/14 03:01:28;;;;;;;;;19.67;19.67;;;;;;;;6488166;47;8981;-64
2021/08/14 03:07:33;;;;;;;;;20.33;17.67;;;;;;;;6488253;39;8990;-64
2021/08/14 03:13:36;;;;;;;;;24.00;22.33;;;;;;;;6488838;39;9019;-63
2021/08/14 03:19:40;;;;;;;;;25.00;23.00;;;;;;;;6487894;47;9103;-62
2021/08/14 03:25:42;;;;;;;;;17.33;17.33;;;;;;;;6488132;39;9171;-64
2021/08/14 03:31:44;;;;;;;;;15.00;14.00;;;;;;;;6489084;39;8986;-64
2021/08/14 03:37:47;;;;;;;;;21.67;20.00;;;;;;;;6488319;39;8968;-62
2021/08/14 03:43:49;;;;;;;;;20.00;18.33;;;;;;;;6487165;46;9022;-63
2021/08/14 03:49:51;;;;;;;;;22.67;19.00;;;;;;;;6489381;39;9623;-64
2021/08/14 03:55:53;;;;;;;;;21.67;19.00;;;;;;;;6491470;31;9094;-64
2021/08/14 04:01:55;;;;;;;;;22.00;20.00;;;;;;;;6490027;39;8992;-64
2021/08/14 04:07:58;;;;;;;;;20.33;18.67;;;;;;;;6490306;39;8971;-64
2021/08/14 04:14:00;;;;;;;;;20.67;19.67;;;;;;;;6489992;46;9022;-64
2021/08/14 04:20:03;;;;;;;;;17.33;16.00;;;;;;;;6490438;31;9034;-63
2021/08/14 04:26:05;;;;;;;;;16.33;16.33;;;;;;;;6489724;46;8960;-64
2021/08/14 04:32:11;;;;;;;;;18.33;15.00;;;;;;;;6489645;36;9014;-63
2021/08/14 04:38:13;;;;;;;;;12.00;12.00;;;;;;;;6489420;46;8968;-64
2021/08/14 04:44:16;;;;;;;;;15.00;15.00;;;;;;;;6490057;39;9025;-64
2021/08/14 04:50:18;;;;;;;;;18.33;17.67;;;;;;;;6490166;31;8992;-64
2021/08/14 04:56:20;;;;;;;;;16.00;15.00;;;;;;;;6489030;39;8971;-63
2021/08/14 05:02:22;;;;;;;;;19.33;16.00;;;;;;;;6488835;46;8988;-63
2021/08/14 05:08:25;;;;;;;;;15.67;15.67;;;;;;;;6489596;39;8958;-64
2021/08/14 05:14:27;;;;;;;;;19.00;17.33;;;;;;;;6489415;46;9064;-64
2021/08/14 05:20:29;;;;;;;;;13.33;13.33;;;;;;;;6489110;39;8987;-64
2021/08/14 05:26:32;;;;;;;;;20.67;16.33;;;;;;;;6489956;31;9055;-63
2021/08/14 05:32:34;;;;;;;;;18.00;14.00;;;;;;;;6489218;39;8987;-64
2021/08/14 05:38:37;;;;;;;;;12.33;12.33;;;;;;;;6489231;39;9079;-65
2021/08/14 05:44:39;;;;;;;;;20.00;18.33;;;;;;;;6489514;39;8959;-66
2021/08/14 05:50:41;;;;;;;;;15.00;15.00;;;;;;;;6489695;31;9204;-63
2021/08/14 05:56:45;;;;;;;;;17.33;16.33;;;;;;;;6489215;46;8983;-64
2021/08/14 06:02:48;;;;;;;;;13.00;10.67;;;;;;;;6489292;46;9443;-64
2021/08/14 06:08:52;;;;;;;;;13.67;13.67;;;;;;;;6489047;39;8971;-64
2021/08/14 06:14:54;;;;;;;;;15.00;15.00;;;;;;;;6489316;39;8940;-64
2021/08/14 06:20:56;;;;;;;;;15.25;13.25;;;;;;;;6488697;39;8963;-64
2021/08/14 06:26:58;;;;;;;;;11.00;8.75;;;;;;;;6488992;39;8973;-63
2021/08/14 06:33:01;;;;;;;;;16.25;16.00;;;;;;;;6488680;31;8951;-64
2021/08/14 06:39:03;;;;;;;;;15.50;15.50;;;;;;;;6488718;39;9628;-64
2021/08/14 06:45:07;;;;;;;;;18.25;16.00;;;;;;;;6488273;46;9042;-64
2021/08/14 06:51:12;;;;;;;;;14.00;13.00;;;;;;;;6488851;31;8980;-64
2021/08/14 06:57:14;;;;;;;;;15.00;14.75;;;;;;;;6488450;39;8967;-65
2021/08/14 07:03:16;;;;;;;;;16.00;14.33;;;;;;;;6487690;46;8992;-64
2021/08/14 07:09:19;;;;;;;;;15.00;14.75;;;;;;;;6488518;47;9064;-64
2021/08/14 07:15:21;;;;;;;;;12.25;12.25;;;;;;;;6488359;39;9644;-65
2021/08/14 07:21:23;;;;;;;;;13.00;10.00;;;;;;;;6489511;31;8979;-64
2021/08/14 07:27:26;;;;;;;;;15.25;12.25;;;;;;;;6489815;39;8984;-63
2021/08/14 07:33:28;;;;;;;;;14.00;13.50;;;;;;;;6490975;31;9633;-65
2021/08/14 07:39:30;;;;;;;;;14.25;12.00;;;;;;;;6489714;39;9614;-64
2021/08/14 07:45:33;;;;;;;;;11.75;11.75;;;;;;;;6490550;31;9742;-65
2021/08/14 07:51:35;;;;;;;;;12.00;10.25;;;;;;;;6489773;39;9046;-64
2021/08/14 07:57:41;;;;;;;;;10.00;9.50;;;;;;;;6489647;46;9051;-65
2021/08/14 08:03:44;;;;;;;;;13.75;10.25;;;;;;;;6489775;39;9028;-66
2021/08/14 08:09:47;;;;;;;;;14.50;11.50;;;;;;;;6490255;31;9001;-65
2021/08/14 08:15:49;;;;;;;;;12.75;12.75;;;;;;;;6489706;46;10096;-65
2021/08/14 08:21:51;;;;;;;;;14.75;11.00;;;;;;;;6490395;39;8975;-64
2021/08/14 08:27:53;;;;;;;;;10.50;8.00;;;;;;;;6490238;39;9663;-63
2021/08/14 08:33:56;;;;;;;;;10.00;9.00;;;;;;;;6489017;39;8979;-65
2021/08/14 08:40:00;;;;;;;;;8.25;8.25;;;;;;;;6490603;31;9048;-64
2021/08/14 08:46:04;;;;;;;;;8.50;7.25;;;;;;;;6489595;46;9050;-64
2021/08/14 08:52:08;;;;;;;;;9.75;8.75;;;;;;;;6488688;46;9073;-64
2021/08/14 08:58:13;;;;;;;;;9.25;9.25;;;;;;;;6489558;39;8991;-65
2021/08/14 09:04:33;;;;;;;;;10.75;10.25;;;;;;;;6489172;39;9141;-65
2021/08/14 09:10:36;;;;;;;;;11.75;11.00;;;;;;;;6491175;31;8990;-65
2021/08/14 09:16:38;;;;;;;;;12.67;10.33;;;;;;;;6489412;31;8956;-64
2021/08/14 09:23:05;;;;;;;;;4.25;3.75;;;;;;;;6489329;46;9050;-65
2021/08/14 09:29:07;;;;;;;;;9.50;9.50;;;;;;;;6489399;39;8928;-66
2021/08/14 09:35:11;;;;;;;;;8.75;8.75;;;;;;;;6488890;39;9106;-65
2021/08/14 09:41:16;;;;;;;;;10.75;10.50;;;;;;;;6489145;39;9004;-65
2021/08/14 09:47:32;;;;;;;;;11.00;9.25;;;;;;;;6489904;31;9140;-65
2021/08/14 09:53:34;;;;;;;;;15.00;15.00;;;;;;;;6489472;31;9095;-65
2021/08/14 09:59:37;;;;;;;;;11.50;11.50;;;;;;;;6489580;31;9078;-64
2021/08/14 10:05:40;;;;;;;;;13.50;12.75;;;;;;;;6489619;39;9076;-63
2021/08/14 10:11:43;;;;;;;;;11.00;10.25;;;;;;;;6489084;39;8943;-64
2021/08/14 10:17:47;;;;;;;;;13.25;12.50;;;;;;;;6488113;46;8988;-65
2021/08/14 10:23:55;;;;;;;;;13.00;12.00;;;;;;;;6488575;39;8971;-64
2021/08/14 10:29:58;;;;;;;;;10.00;10.00;;;;;;;;6488917;39;9059;-65
2021/08/14 10:36:34;;;;;;;;;10.00;10.00;;;;;;;;6488221;47;9030;-63
2021/08/14 10:42:54;;;;;;;;;10.50;10.50;;;;;;;;6488341;31;9005;-65
2021/08/14 10:48:58;;;;;;;;;11.25;11.00;;;;;;;;6488419;47;9074;-65
2021/08/14 10:55:09;;;;;;;;;16.00;13.00;;;;;;;;6488615;39;9038;-65
2021/08/14 11:01:23;;;;;;;;;11.50;11.50;;;;;;;;6491235;39;10201;-65
2021/08/14 11:07:25;;;;;;;;;9.00;9.00;;;;;;;;6491018;31;9008;-64
2021/08/14 11:13:47;;;;;;;;;10.00;10.00;;;;;;;;6489969;39;9550;-64
2021/08/14 11:19:52;;;;;;;;;12.75;10.75;;;;;;;;6490093;39;9022;-64
2021/08/14 11:25:54;;;;;;;;;14.00;11.75;;;;;;;;6491072;39;9054;-65
2021/08/14 11:31:58;;;;;;;;;10.25;9.75;;;;;;;;6490313;46;9001;-65
2021/08/14 11:38:04;;;;;;;;;15.00;15.00;;;;;;;;6489309;39;8987;-64
2021/08/14 11:44:06;;;;;;;;;13.75;12.75;;;;;;;;6490038;39;9019;-65
2021/08/14 11:50:09;;;;;;;;;15.25;11.50;;;;;;;;6490540;39;8962;-64
2021/08/14 11:56:14;;;;;;;;;11.50;11.50;;;;;;;;6490112;46;9106;-64
2021/08/14 12:02:16;;;;;;;;;12.50;12.00;;;;;;;;6490150;39;9782;-65
2021/08/14 12:08:31;;;;;;;;;11.50;11.50;;;;;;;;6489856;39;9476;-64
2021/08/14 12:14:42;;;;;;;;;16.00;14.25;;;;;;;;6489569;46;8955;-65
2021/08/14 12:20:44;;;;;;;;;16.00;14.00;;;;;;;;6489629;39;8960;-65
2021/08/14 12:26:46;;;;;;;;;13.75;12.50;;;;;;;;6490063;39;8955;-65
2021/08/14 12:32:53;;;;;;;;;14.00;14.00;;;;;;;;6490324;46;8979;-65
2021/08/14 12:38:57;;;;;;;;;16.25;13.50;;;;;;;;6489848;46;9054;-65
2021/08/14 12:45:11;;;;;;;;;11.00;11.00;;;;;;;;6490538;31;9750;-64
2021/08/14 12:51:16;;;;;;;;;11.00;10.50;;;;;;;;6489741;39;9536;-63
2021/08/14 12:57:19;;;;;;;;;13.00;12.00;;;;;;;;6489707;46;8960;-64
2021/08/14 13:03:23;;;;;;;;;13.00;13.00;;;;;;;;6490105;39;9493;-64
2021/08/14 13:09:26;;;;;;;;;15.00;12.75;;;;;;;;6488806;46;8980;-64
2021/08/14 13:15:28;;;;;;;;;13.50;13.50;;;;;;;;6489931;39;8955;-64
2021/08/14 13:21:30;;;;;;;;;14.00;14.00;;;;;;;;6489328;31;9123;-63
2021/08/14 13:27:34;;;;;;;;;14.00;14.00;;;;;;;;6489693;39;8967;-63
2021/08/14 13:33:38;;;;;;;;;13.25;13.25;;;;;;;;6488699;39;8955;-64
2021/08/14 13:39:40;;;;;;;;;15.25;15.25;;;;;;;;6488695;39;9086;-64
2021/08/14 13:45:44;;;;;;;;;13.00;13.00;;;;;;;;6489034;31;8969;-64
2021/08/14 13:51:46;;;;;;;;;15.25;14.25;;;;;;;;6488939;39;9061;-64
2021/08/14 13:57:49;;;;;;;;;15.00;14.50;;;;;;;;6489391;39;9004;-65
2021/08/14 14:03:51;;;;;;;;;16.00;13.00;;;;;;;;6490209;31;8971;-67
2021/08/14 14:09:55;;;;;;;;;13.50;12.50;;;;;;;;6488161;46;8968;-64
2021/08/14 14:15:57;;;;;;;;;12.50;12.50;;;;;;;;6489179;39;8915;-66
2021/08/14 14:22:00;;;;;;;;;11.25;9.75;;;;;;;;6488993;39;9601;-65
2021/08/14 14:28:02;;;;;;;;;9.25;9.25;;;;;;;;6489913;31;8932;-65
2021/08/14 14:34:04;;;;;;;;;11.00;11.00;;;;;;;;6489730;31;8941;-64
2021/08/14 14:40:26;;;;;;;;;9.25;9.25;;;;;;;;6488351;47;9035;-64
2021/08/14 14:46:28;;;;;;;;;13.25;12.75;;;;;;;;6488657;39;9561;-65
2021/08/14 14:52:31;;;;;;;;;14.00;13.25;;;;;;;;6489147;31;9744;-64
2021/08/14 14:58:33;;;;;;;;;13.00;13.00;;;;;;;;6489186;31;8960;-65
2021/08/14 15:04:37;;;;;;;;;14.75;12.00;;;;;;;;6487620;39;9722;-65
2021/08/14 15:10:40;;;;;;;;;15.25;13.75;;;;;;;;6488576;39;8944;-63
2021/08/14 15:16:42;;;;;;;;;10.50;10.25;;;;;;;;6488180;47;8951;-66
2021/08/14 15:22:45;;;;;;;;;10.00;8.75;;;;;;;;6487574;31;8969;-64
2021/08/14 15:28:50;;;;;;;;;12.50;10.75;;;;;;;;6487670;39;9060;-65
2021/08/14 15:34:52;;;;;;;;;13.00;12.00;;;;;;;;6488052;47;9004;-64
2021/08/14 15:40:55;;;;;;;;;20.25;15.00;;;;;;;;6488005;46;9192;-65
2021/08/14 15:46:58;;;;;;;;;17.75;11.25;;;;;;;;6489539;46;9152;-65
2021/08/14 15:53:00;;;;;;;;;13.75;12.25;;;;;;;;6489572;46;8990;-66
2021/08/14 15:59:02;;;;;;;;;13.25;11.25;;;;;;;;6489730;46;8961;-65
2021/08/14 16:05:06;;;;;;;;;18.50;13.50;;;;;;;;6489901;31;9009;-65
2021/08/14 16:11:10;;;;;;;;;16.50;15.25;;;;;;;;6489735;39;8960;-64
2021/08/14 16:17:12;;;;;;;;;15.25;13.25;;;;;;;;6489966;39;9599;-65
2021/08/14 16:23:14;;;;;;;;;14.75;13.75;;;;;;;;6490149;31;8976;-65
2021/08/14 16:29:17;;;;;;;;;14.25;14.00;;;;;;;;6490666;39;8967;-65
2021/08/14 16:35:19;;;;;;;;;17.50;17.50;;;;;;;;6489115;39;8968;-64
2021/08/14 16:41:21;;;;;;;;;16.50;15.00;;;;;;;;6490031;39;8968;-63
2021/08/14 16:47:23;;;;;;;;;22.50;18.75;;;;;;;;6489549;31;8971;-64
2021/08/14 16:53:26;;;;;;;;;15.25;14.00;;;;;;;;6489507;31;9046;-63
2021/08/14 16:59:30;;;;;;;;;14.75;14.25;;;;;;;;6489526;46;9009;-65
2021/08/14 17:05:32;;;;;;;;;14.25;14.25;;;;;;;;6489749;39;8967;-65
2021/08/14 17:11:36;;;;;;;;;16.75;14.75;;;;;;;;6490264;39;8960;-63
2021/08/14 17:17:38;;;;;;;;;17.00;13.50;;;;;;;;6489476;46;8990;-64
2021/08/14 17:23:41;;;;;;;;;17.00;16.25;;;;;;;;6490227;31;9059;-65
2021/08/14 17:29:43;;;;;;;;;18.50;17.00;;;;;;;;6489549;39;9042;-65
2021/08/14 17:35:45;;;;;;;;;21.75;18.50;;;;;;;;6489082;46;8976;-66
2021/08/14 17:41:48;;;;;;;;;27.50;26.50;;;;;;;;6489971;39;9107;-65
2021/08/14 17:47:50;;;;;;;;;26.75;22.50;;;;;;;;6489239;39;8991;-65
2021/08/14 17:53:54;;;;;;;;;29.50;23.00;;;;;;;;6487987;46;9017;-64
2021/08/14 17:59:56;;;;;;;;;22.00;20.50;;;;;;;;6488867;46;8981;-64
2021/08/14 18:05:58;;;;;;;;;23.25;22.50;;;;;;;;6488676;39;9100;-66
2021/08/14 18:12:02;;;;;;;;;27.50;23.00;;;;;;;;6489155;39;9000;-64
2021/08/14 18:18:05;;;;;;;;;23.50;21.50;;;;;;;;6489192;39;9011;-64
2021/08/14 18:24:08;;;;;;;;;29.75;25.00;;;;;;;;6488261;46;8965;-63
2021/08/14 18:30:12;;;;;;;;;26.00;25.75;;;;;;;;6308153;31;10002950;-65
2021/08/14 18:36:14;;;;;;;;;22.75;20.75;;;;;;;;6488866;31;9716;-64
2021/08/14 18:42:16;;;;;;;;;21.25;21.25;;;;;;;;6489107;31;8952;-65
2021/08/14 18:48:18;;;;;;;;;25.75;22.75;;;;;;;;6488532;31;9004;-65
2021/08/14 18:54:20;;;;;;;;;21.25;20.00;;;;;;;;6488790;39;9010;-64
2021/08/14 19:00:23;;;;;;;;;24.50;22.25;;;;;;;;6488227;39;9065;-64
2021/08/14 19:06:26;;;;;;;;;22.00;20.75;;;;;;;;6488003;39;9013;-64
2021/08/14 19:12:28;;;;;;;;;22.00;20.50;;;;;;;;6488310;31;9067;-65
2021/08/14 19:18:30;;;;;;;;;24.00;22.00;;;;;;;;6489325;39;9684;-65
2021/08/14 19:24:33;;;;;;;;;18.00;15.50;;;;;;;;6490481;39;9083;-64
2021/08/14 19:30:35;;;;;;;;;23.75;21.00;;;;;;;;6490859;39;8993;-66
2021/08/14 19:36:37;;;;;;;;;13.75;13.25;;;;;;;;6490472;39;8972;-63
2021/08/14 19:42:39;;;;;;;;;26.75;25.50;;;;;;;;6490949;31;8984;-65
2021/08/14 19:48:42;;;;;;;;;20.50;16.75;;;;;;;;6489583;39;9748;-63
2021/08/14 19:54:44;;;;;;;;;19.00;18.25;;;;;;;;6490318;39;9076;-64
2021/08/14 20:00:47;;;;;;;;;19.00;18.25;;;;;;;;6489957;46;9095;-64
2021/08/14 20:06:49;;;;;;;;;14.50;14.00;;;;;;;;6490925;39;8964;-64
2021/08/14 20:12:51;;;;;;;;;16.00;16.00;;;;;;;;6489962;46;8965;-63
2021/08/14 20:18:54;;;;;;;;;15.50;15.50;;;;;;;;6491523;31;8994;-63
2021/08/14 20:24:56;;;;;;;;;21.25;19.75;;;;;;;;6489991;46;8973;-65
2021/08/14 20:30:59;;;;;;;;;23.25;21.00;;;;;;;;6489928;39;9094;-64
2021/08/14 20:37:02;;;;;;;;;18.50;18.50;;;;;;;;6490031;39;8960;-63
2021/08/14 20:43:04;;;;;;;;;16.25;14.50;;;;;;;;6489848;31;9118;-64
2021/08/14 20:49:07;;;;;;;;;19.25;15.50;;;;;;;;6490258;39;9075;-65
2021/08/14 20:55:10;;;;;;;;;16.00;15.75;;;;;;;;6490699;39;8975;-64
2021/08/14 21:01:14;;;;;;;;;15.75;15.75;;;;;;;;6489621;46;9023;-63
2021/08/14 21:07:17;;;;;;;;;12.50;12.50;;;;;;;;6489972;39;8955;-65
2021/08/14 21:13:19;;;;;;;;;15.50;15.00;;;;;;;;6489503;39;8972;-64
2021/08/14 21:19:24;;;;;;;;;19.00;15.50;;;;;;;;6489880;39;8963;-65
2021/08/14 21:25:27;;;;;;;;;17.25;14.75;;;;;;;;6489757;39;9160;-63
2021/08/14 21:31:29;;;;;;;;;18.33;16.67;;;;;;;;6490274;39;8994;-63
2021/08/14 21:37:31;;;;;;;;;18.25;16.75;;;;;;;;6489375;39;9013;-64
2021/08/14 21:43:34;;;;;;;;;19.67;17.33;;;;;;;;6489374;39;8963;-64
2021/08/14 21:49:36;;;;;;;;;15.50;15.00;;;;;;;;6489143;46;8969;-64
2021/08/14 21:55:38;;;;;;;;;14.50;14.50;;;;;;;;6489796;31;8994;-63
2021/08/14 22:01:43;;;;;;;;;17.33;16.33;;;;;;;;6488283;39;9095;-63
2021/08/14 22:07:46;;;;;;;;;21.00;17.50;;;;;;;;6489610;31;8956;-64
2021/08/14 22:13:48;;;;;;;;;20.25;20.25;;;;;;;;6487526;46;8928;-65
2021/08/14 22:19:51;;;;;;;;;19.33;18.33;;;;;;;;6489050;46;8939;-64
2021/08/14 22:25:53;;;;;;;;;22.50;18.00;;;;;;;;6488886;39;9074;-64
2021/08/14 22:31:55;;;;;;;;;14.75;14.75;;;;;;;;6488632;39;8963;-64
2021/08/14 22:38:04;;;;;;;;;19.50;18.00;;;;;;;;6489291;39;8948;-63
2021/08/14 22:44:08;;;;;;;;;14.75;14.75;;;;;;;;6488817;39;8979;-64
2021/08/14 22:50:10;;;;;;;;;17.00;16.50;;;;;;;;6488702;35;9027;-64
2021/08/14 22:56:12;;;;;;;;;17.33;16.00;;;;;;;;6490279;39;9598;-63
2021/08/14 23:02:14;;;;;;;;;18.25;17.00;;;;;;;;6489970;46;8984;-63
2021/08/14 23:08:17;;;;;;;;;24.00;21.00;;;;;;;;6490135;39;9005;-63
2021/08/14 23:14:20;;;;;;;;;21.00;21.00;;;;;;;;6489697;46;9031;-64
2021/08/14 23:20:23;;;;;;;;;27.33;25.33;;;;;;;;6490208;46;8951;-65
2021/08/14 23:26:25;;;;;;;;;27.67;26.33;;;;;;;;6490819;39;9059;-64
2021/08/14 23:32:27;;;;;;;;;28.67;26.67;;;;;;;;6490942;39;8959;-64
2021/08/14 23:38:29;;;;;;;;;30.00;30.00;;;;;;;;6490278;31;9088;-63
2021/08/14 23:44:31;;;;;;;;;30.67;27.00;;;;;;;;6490760;39;8956;-64
2021/08/14 23:50:34;;;;;;;;;30.67;29.33;;;;;;;;6490213;39;8985;-64
2021/08/14 23:56:36;;;;;;;;;31.33;30.00;;;;;;;;6490156;46;9042;-64
